createdAt,value
2022-09-21T00:00:17.376Z,100245.00
2022-09-21T00:03:10.854Z,100245.61
2022-09-21T00:05:42.926Z,100247.81
2022-09-21T00:08:16.097Z,100247.39
2022-09-21T00:10:52.354Z,100245.66
2022-09-21T00:13:26.469Z,100243.18
2022-09-21T00:15:59.182Z,100244.39
2022-09-21T00:18:31.298Z,100244.02
2022-09-21T00:21:03.826Z,100241.40
2022-09-21T00:23:37.677Z,100242.41
2022-09-21T00:26:15.950Z,100242.70
2022-09-21T00:28:49.523Z,100243.19
2022-09-21T00:31:21.672Z,100244.93
2022-09-21T00:33:54.759Z,100246.29
2022-09-21T00:36:27.972Z,100245.60
2022-09-21T00:39:02.100Z,100244.39
2022-09-21T00:41:35.611Z,100242.64
2022-09-21T00:44:36.870Z,100245.39
2022-09-21T00:47:13.177Z,100248.14
2022-09-21T00:49:49.630Z,100246.92
2022-09-21T00:52:26.327Z,100246.73
2022-09-21T00:55:03.377Z,100249.15
2022-09-21T00:57:35.643Z,100250.66
2022-09-21T01:00:11.700Z,100248.73
2022-09-21T01:02:44.568Z,100250.79
2022-09-21T01:05:16.775Z,100246.59
2022-09-21T01:07:51.104Z,100249.34
2022-09-21T01:10:23.663Z,100248.30
2022-09-21T01:13:12.470Z,100248.80
2022-09-21T01:15:53.034Z,100247.20
2022-09-21T01:18:36.395Z,100250.65
2022-09-21T01:21:23.454Z,100252.02
2022-09-21T01:24:19.697Z,100255.63
2022-09-21T01:27:27.996Z,100255.30
2022-09-21T01:30:03.793Z,100260.29
2022-09-21T01:32:39.950Z,100260.81
2022-09-21T01:35:16.147Z,100264.05
2022-09-21T01:37:53.613Z,100265.91
2022-09-21T01:40:34.562Z,100265.14
2022-09-21T01:43:10.780Z,100269.98
2022-09-21T01:45:47.249Z,100265.79
2022-09-21T01:48:22.506Z,100267.13
2022-09-21T01:50:58.267Z,100269.92
2022-09-21T01:53:37.229Z,100272.16
2022-09-21T01:56:14.910Z,100272.51
2022-09-21T01:58:51.480Z,100272.69
2022-09-21T02:01:27.228Z,100273.23
2022-09-21T02:04:02.793Z,100279.67
2022-09-21T02:06:35.084Z,100280.03
2022-09-21T02:09:07.316Z,100284.53
2022-09-21T02:11:42.570Z,100285.02
2022-09-21T02:14:18.356Z,100282.20
2022-09-21T02:17:02.314Z,100282.88
2022-09-21T02:19:42.094Z,100286.53
2022-09-21T02:22:18.739Z,100285.96
2022-09-21T02:24:55.359Z,100287.34
2022-09-21T02:27:36.418Z,100288.71
2022-09-21T02:30:11.299Z,100284.71
2022-09-21T02:32:51.531Z,100288.85
2022-09-21T02:35:33.303Z,100289.67
2022-09-21T02:38:16.935Z,100288.08
2022-09-21T02:40:57.931Z,100290.44
2022-09-21T02:43:36.239Z,100286.96
2022-09-21T02:46:14.137Z,100291.17
2022-09-21T02:48:50.059Z,100295.04
2022-09-21T02:51:27.053Z,100297.66
2022-09-21T02:54:00.455Z,100299.91
2022-09-21T02:56:34.590Z,100301.39
2022-09-21T02:59:08.581Z,100301.39
2022-09-21T03:01:42.827Z,100300.55
2022-09-21T03:04:14.904Z,100296.42
2022-09-21T03:06:47.210Z,100302.66
2022-09-21T03:09:19.445Z,100304.23
2022-09-21T03:11:51.559Z,100302.32
2022-09-21T03:14:23.531Z,100302.35
2022-09-21T03:16:55.777Z,100300.98
2022-09-21T03:19:28.574Z,100304.11
2022-09-21T03:22:00.798Z,100301.85
2022-09-21T03:24:48.208Z,100303.08
2022-09-21T03:27:23.088Z,100304.65
2022-09-21T03:29:57.715Z,100309.85
2022-09-21T03:32:30.597Z,100313.83
2022-09-21T03:35:02.664Z,100310.54
2022-09-21T03:37:38.132Z,100316.45
2022-09-21T03:40:13.882Z,100319.23
2022-09-21T03:42:46.940Z,100316.44
2022-09-21T03:45:19.502Z,100317.46
2022-09-21T03:47:51.758Z,100321.92
2022-09-21T03:50:23.983Z,100319.09
2022-09-21T03:52:56.013Z,100318.18
2022-09-21T03:55:29.894Z,100319.40
2022-09-21T03:58:02.418Z,100320.27
2022-09-21T04:00:34.836Z,100318.66
2022-09-21T04:03:06.999Z,100320.23
2022-09-21T04:05:39.754Z,100328.70
2022-09-21T04:08:12.150Z,100327.86
2022-09-21T04:10:44.323Z,100331.33
2022-09-21T04:13:16.346Z,100331.66
2022-09-21T04:15:48.387Z,100329.70
2022-09-21T04:18:20.436Z,100333.37
2022-09-21T04:20:52.864Z,100338.24
2022-09-21T04:23:24.858Z,100337.88
2022-09-21T04:25:58.101Z,100340.10
2022-09-21T04:28:30.107Z,100340.42
2022-09-21T04:31:02.414Z,100344.73
2022-09-21T04:33:34.844Z,100341.73
2022-09-21T04:36:07.676Z,100341.89
2022-09-21T04:38:40.691Z,100341.35
2022-09-21T04:41:13.254Z,100343.61
2022-09-21T04:43:46.793Z,100348.11
2022-09-21T04:46:20.782Z,100351.77
2022-09-21T04:48:53.246Z,100353.61
2022-09-21T04:51:25.344Z,100356.52
2022-09-21T04:53:57.378Z,100358.24
2022-09-21T04:56:29.453Z,100362.36
2022-09-21T04:59:01.686Z,100361.61
2022-09-21T05:01:34.682Z,100365.20
2022-09-21T05:04:06.895Z,100365.50
2022-09-21T05:06:39.619Z,100368.77
2022-09-21T05:09:29.762Z,100370.81
2022-09-21T05:12:03.097Z,100371.88
2022-09-21T05:14:35.654Z,100372.05
2022-09-21T05:17:07.963Z,100369.40
2022-09-21T05:19:40.110Z,100371.05
2022-09-21T05:22:12.178Z,100375.32
2022-09-21T05:24:44.193Z,100379.92
2022-09-21T05:27:16.374Z,100379.02
2022-09-21T05:29:50.112Z,100380.50
2022-09-21T05:32:29.138Z,100382.85
2022-09-21T05:35:14.216Z,100389.20
2022-09-21T05:37:53.531Z,100390.00
2022-09-21T05:40:26.823Z,100395.67
2022-09-21T05:42:59.948Z,100397.86
2022-09-21T05:45:33.455Z,100395.52
2022-09-21T05:48:14.359Z,100403.42
2022-09-21T05:50:56.109Z,100403.73
2022-09-21T05:54:00.323Z,100407.63
2022-09-21T05:56:44.142Z,100407.35
2022-09-21T05:59:41.570Z,100408.30
2022-09-21T06:02:24.329Z,100411.11
2022-09-21T06:04:57.783Z,100408.90
2022-09-21T06:07:29.948Z,100407.96
2022-09-21T06:10:01.919Z,100414.42
2022-09-21T06:12:34.437Z,100408.90
2022-09-21T06:15:07.730Z,100410.23
2022-09-21T06:17:39.781Z,100410.66
2022-09-21T06:20:13.385Z,100408.00
2022-09-21T06:22:46.083Z,100411.60
2022-09-21T06:25:20.219Z,100414.52
2022-09-21T06:27:52.401Z,100414.02
2022-09-21T06:30:24.555Z,100419.19
2022-09-21T06:32:59.702Z,100420.51
2022-09-21T06:35:32.801Z,100420.71
2022-09-21T06:38:06.700Z,100419.34
2022-09-21T06:40:39.434Z,100418.54
2022-09-21T06:43:11.632Z,100419.52
2022-09-21T06:45:43.785Z,100422.18
2022-09-21T06:48:15.874Z,100419.92
2022-09-21T06:50:47.879Z,100421.45
2022-09-21T06:53:20.812Z,100424.20
2022-09-21T06:55:53.510Z,100425.71
2022-09-21T06:58:25.558Z,100427.60
2022-09-21T07:00:57.942Z,100427.77
2022-09-21T07:03:31.394Z,100428.56
2022-09-21T07:06:03.520Z,100437.21
2022-09-21T07:11:28.398Z,100440.70
2022-09-21T07:14:00.692Z,100441.20
2022-09-21T07:16:33.480Z,100440.42
2022-09-21T07:19:13.274Z,100443.20
2022-09-21T07:21:45.474Z,100444.36
2022-09-21T07:24:17.482Z,100441.98
2022-09-21T07:26:49.601Z,100443.56
2022-09-21T07:29:21.614Z,100442.75
2022-09-21T07:31:53.696Z,100444.59
2022-09-21T07:34:26.495Z,100434.81
2022-09-21T07:36:58.507Z,100427.13
2022-09-21T07:39:30.650Z,100432.09
2022-09-21T07:42:02.835Z,100432.52
2022-09-21T07:44:35.424Z,100436.38
2022-09-21T07:47:08.463Z,100437.70
2022-09-21T07:49:40.825Z,100422.31
2022-09-21T07:52:12.891Z,100419.50
2022-09-21T07:54:45.176Z,100421.62
2022-09-21T07:57:35.171Z,100423.12
2022-09-21T08:00:10.191Z,100431.12
2022-09-21T08:02:47.652Z,100431.81
2022-09-21T08:05:20.126Z,100434.58
2022-09-21T08:07:53.077Z,100439.46
2022-09-21T08:10:26.380Z,100442.48
2022-09-21T08:12:58.965Z,100445.83
2022-09-21T08:15:48.724Z,100445.57
2022-09-21T08:18:23.111Z,100445.65
2022-09-21T08:20:58.382Z,100450.10
2022-09-21T08:23:31.751Z,100446.17
2022-09-21T08:26:06.898Z,100452.12
2022-09-21T08:28:40.492Z,100453.96
2022-09-21T08:31:13.003Z,100459.73
2022-09-21T08:33:45.455Z,100462.04
2022-09-21T08:36:18.060Z,100458.39
2022-09-21T08:38:50.962Z,100463.58
2022-09-21T08:41:26.918Z,100463.77
2022-09-21T08:44:05.395Z,100463.52
2022-09-21T08:46:40.429Z,100470.75
2022-09-21T08:49:17.664Z,100470.52
2022-09-21T08:51:53.357Z,100469.70
2022-09-21T08:54:30.319Z,100475.83
2022-09-21T08:57:05.497Z,100477.35
2022-09-21T08:59:45.702Z,100473.71
2022-09-21T09:02:34.311Z,100473.61
2022-09-21T09:05:20.229Z,100473.97
2022-09-21T09:08:08.242Z,100479.60
2022-09-21T09:10:45.451Z,100483.13
2022-09-21T09:13:35.106Z,100482.48
2022-09-21T09:16:19.521Z,100482.60
2022-09-21T09:18:55.947Z,100476.56
2022-09-21T09:21:35.409Z,100477.41
2022-09-21T09:24:16.322Z,100475.98
2022-09-21T09:26:53.894Z,100477.25
2022-09-21T09:29:32.691Z,100475.03
2022-09-21T09:32:06.525Z,100479.67
2022-09-21T09:34:45.040Z,100486.77
2022-09-21T09:37:19.238Z,100484.21
2022-09-21T09:39:57.250Z,100475.17
2022-09-21T09:42:43.044Z,100477.34
2022-09-21T09:45:52.168Z,100480.50
2022-09-21T09:48:54.185Z,100478.40
2022-09-21T09:51:26.971Z,100478.51
2022-09-21T09:54:05.872Z,100472.39
2022-09-21T09:56:41.801Z,100472.36
2022-09-21T09:59:24.900Z,100474.20
2022-09-21T10:02:05.850Z,100475.64
2022-09-21T10:04:38.043Z,100472.90
2022-09-21T10:07:20.964Z,100470.89
2022-09-21T10:09:52.984Z,100465.64
2022-09-21T10:12:28.106Z,100463.34
2022-09-21T10:15:01.580Z,100459.18
2022-09-21T10:17:34.127Z,100460.49
2022-09-21T10:20:17.225Z,100453.91
2022-09-21T10:22:56.335Z,100446.75
2022-09-21T10:25:28.411Z,100454.31
2022-09-21T10:28:02.758Z,100454.14
2022-09-21T10:30:39.753Z,100450.52
2022-09-21T10:33:22.520Z,100445.78
2022-09-21T10:35:57.063Z,100444.46
2022-09-21T10:38:30.829Z,100442.19
2022-09-21T10:41:02.893Z,100448.13
2022-09-21T10:43:43.599Z,100451.79
2022-09-21T10:46:17.253Z,100454.00
2022-09-21T10:48:49.584Z,100453.23
2022-09-21T10:51:31.877Z,100449.66
2022-09-21T10:54:09.403Z,100451.05
2022-09-21T10:56:54.109Z,100449.08
2022-09-21T10:59:30.341Z,100444.91
2022-09-21T11:02:04.007Z,100446.91
2022-09-21T11:04:47.582Z,100442.48
2022-09-21T11:07:24.806Z,100441.59
2022-09-21T11:10:04.907Z,100444.00
2022-09-21T11:12:50.486Z,100440.88
2022-09-21T11:15:35.042Z,100442.33
2022-09-21T11:18:17.590Z,100440.63
2022-09-21T11:20:54.661Z,100437.65
2022-09-21T11:23:45.480Z,100436.81
2022-09-21T11:26:25.328Z,100442.80
2022-09-21T11:29:03.533Z,100444.70
2022-09-21T11:32:05.916Z,100441.45
2022-09-21T11:35:09.524Z,100441.76
2022-09-21T11:37:59.328Z,100443.61
2022-09-21T11:40:43.789Z,100440.21
2022-09-21T11:43:31.973Z,100441.11
2022-09-21T11:46:17.073Z,100443.47
2022-09-21T11:49:01.791Z,100444.06
2022-09-21T11:51:57.283Z,100439.30
2022-09-21T11:54:52.007Z,100435.38
2022-09-21T11:57:28.912Z,100435.98
2022-09-21T12:00:16.196Z,100436.73
2022-09-21T12:03:28.851Z,100438.47
2022-09-21T12:06:13.495Z,100437.46
2022-09-21T12:09:15.810Z,100434.36
2022-09-21T12:11:59.880Z,100438.52
2022-09-21T12:14:41.807Z,100433.02
2022-09-21T12:17:17.808Z,100427.23
2022-09-21T12:19:57.455Z,100421.69
2022-09-21T12:22:33.951Z,100420.50
2022-09-21T12:25:13.953Z,100413.44
2022-09-21T12:27:51.845Z,100414.71
2022-09-21T12:30:25.714Z,100411.23
2022-09-21T12:33:05.843Z,100411.84
2022-09-21T12:35:42.226Z,100413.63
2022-09-21T12:38:19.096Z,100408.86
2022-09-21T12:40:55.689Z,100410.88
2022-09-21T12:43:36.253Z,100410.16
2022-09-21T12:46:14.201Z,100409.08
2022-09-21T12:48:46.351Z,100403.64
2022-09-21T12:51:24.782Z,100410.51
2022-09-21T12:54:00.351Z,100412.86
2022-09-21T12:56:44.643Z,100415.69
2022-09-21T12:59:32.309Z,100419.69
2022-09-21T13:02:14.589Z,100419.29
2022-09-21T13:05:06.250Z,100421.29
2022-09-21T13:08:03.407Z,100425.54
2022-09-21T13:10:43.134Z,100428.52
2022-09-21T13:13:26.399Z,100434.94
2022-09-21T13:16:00.222Z,100446.17
2022-09-21T13:18:36.662Z,100447.68
2022-09-21T13:21:22.144Z,100447.40
2022-09-21T13:24:00.867Z,100445.08
2022-09-21T13:26:37.641Z,100441.86
2022-09-21T13:29:31.085Z,100444.33
2022-09-21T13:32:05.199Z,100440.91
2022-09-21T13:34:39.171Z,100439.14
2022-09-21T13:37:28.899Z,100438.77
2022-09-21T13:40:41.567Z,100442.49
2022-09-21T13:43:46.607Z,100440.76
2022-09-21T13:46:50.276Z,100441.69
2022-09-21T13:49:27.146Z,100442.02
2022-09-21T13:52:02.917Z,100434.71
2022-09-21T13:54:39.749Z,100435.80
2022-09-21T13:57:21.263Z,100434.05
2022-09-21T14:00:36.220Z,100435.25
2022-09-21T14:03:22.605Z,100433.54
2022-09-21T14:05:57.555Z,100430.27
2022-09-21T14:08:35.690Z,100431.11
2022-09-21T14:11:12.806Z,100428.86
2022-09-21T14:13:47.133Z,100424.47
2022-09-21T14:17:04.146Z,100424.26
2022-09-21T14:20:08.135Z,100428.71
2022-09-21T14:22:43.775Z,100423.31
2022-09-21T14:25:32.446Z,100425.85
2022-09-21T14:28:13.258Z,100421.18
2022-09-21T14:30:54.741Z,100422.28
2022-09-21T14:33:33.803Z,100424.27
2022-09-21T14:36:11.248Z,100422.90
2022-09-21T14:38:55.838Z,100425.18
2022-09-21T14:41:38.291Z,100426.20
2022-09-21T14:44:21.031Z,100428.90
2022-09-21T14:47:17.793Z,100425.36
2022-09-21T14:50:15.614Z,100421.88
2022-09-21T14:53:08.200Z,100413.95
2022-09-21T14:56:03.984Z,100415.98
2022-09-21T14:58:50.186Z,100415.60
2022-09-21T15:01:42.358Z,100417.27
2022-09-21T15:04:46.044Z,100420.52
2022-09-21T15:07:59.238Z,100422.70
2022-09-21T15:10:55.432Z,100431.50
2022-09-21T15:13:53.605Z,100432.22
2022-09-21T15:16:34.857Z,100433.80
2022-09-21T15:19:17.455Z,100430.57
2022-09-21T15:21:51.329Z,100430.56
2022-09-21T15:24:27.012Z,100433.90
2022-09-21T15:27:10.606Z,100437.21
2022-09-21T15:29:48.966Z,100436.67
2022-09-21T15:32:34.289Z,100442.68
2022-09-21T15:35:17.059Z,100442.98
2022-09-21T15:37:50.116Z,100457.11
2022-09-21T15:40:25.918Z,100460.91
2022-09-21T15:43:05.826Z,100462.35
2022-09-21T15:45:52.035Z,100461.98
2022-09-21T15:48:25.039Z,100466.55
2022-09-21T15:51:00.586Z,100465.62
2022-09-21T15:53:38.749Z,100473.77
2022-09-21T15:56:20.944Z,100476.98
2022-09-21T15:59:05.195Z,100480.85
2022-09-21T16:01:42.826Z,100479.92
2022-09-21T16:04:18.956Z,100482.65
2022-09-21T16:07:02.976Z,100482.55
2022-09-21T16:09:43.751Z,100484.19
2022-09-21T16:12:42.215Z,100484.64
2022-09-21T16:15:32.246Z,100487.58
2022-09-21T16:18:07.090Z,100487.95
2022-09-21T16:20:45.804Z,100492.59
2022-09-21T16:23:23.405Z,100489.67
2022-09-21T16:26:02.218Z,100490.74
2022-09-21T16:28:41.317Z,100490.34
2022-09-21T16:31:34.251Z,100490.26
2022-09-21T16:34:22.948Z,100499.26
2022-09-21T16:36:55.604Z,100497.98
2022-09-21T16:39:28.169Z,100502.27
2022-09-21T16:42:05.565Z,100501.81
2022-09-21T16:44:44.952Z,100508.30
2022-09-21T16:47:22.847Z,100509.56
2022-09-21T16:49:57.196Z,100508.20
2022-09-21T16:52:30.766Z,100512.83
2022-09-21T16:55:02.978Z,100521.07
2022-09-21T16:57:35.075Z,100520.18
2022-09-21T17:00:11.532Z,100519.28
2022-09-21T17:02:45.463Z,100513.52
2022-09-21T17:05:20.730Z,100515.61
2022-09-21T17:07:56.886Z,100515.23
2022-09-21T17:10:32.743Z,100517.67
2022-09-21T17:13:06.940Z,100516.98
2022-09-21T17:15:44.808Z,100521.56
2022-09-21T17:18:17.186Z,100522.11
2022-09-21T17:20:49.534Z,100522.93
2022-09-21T17:23:27.645Z,100530.38
2022-09-21T17:25:59.799Z,100532.77
2022-09-21T17:28:32.336Z,100532.82
2022-09-21T17:31:07.457Z,100536.57
2022-09-21T17:33:39.608Z,100535.83
2022-09-21T17:36:16.118Z,100538.02
2022-09-21T17:38:47.019Z,100542.84
2022-09-21T17:41:25.781Z,100544.18
2022-09-21T17:44:07.178Z,100549.50
2022-09-21T17:46:48.205Z,100548.75
2022-09-21T17:49:21.007Z,100551.98
2022-09-21T17:52:11.452Z,100553.27
2022-09-21T17:54:46.158Z,100555.59
2022-09-21T17:57:31.054Z,100559.52
2022-09-21T18:00:11.416Z,100553.95
2022-09-21T18:02:44.038Z,100556.81
2022-09-21T18:05:23.460Z,100555.86
2022-09-21T18:07:57.013Z,100559.19
2022-09-21T18:10:30.266Z,100557.97
2022-09-21T18:13:20.745Z,100557.97
2022-09-21T18:16:04.338Z,100557.59
2022-09-21T18:18:45.661Z,100557.58
2022-09-21T18:21:22.087Z,100557.57
2022-09-21T18:24:18.935Z,100560.02
2022-09-21T18:26:52.672Z,100564.37
2022-09-21T18:29:42.173Z,100570.92
2022-09-21T18:32:35.016Z,100569.02
2022-09-21T18:35:27.585Z,100573.53
2022-09-21T18:38:20.916Z,100571.98
2022-09-21T18:41:05.434Z,100572.88
2022-09-21T18:43:54.128Z,100574.16
2022-09-21T18:46:33.627Z,100574.41
2022-09-21T18:49:13.756Z,100574.77
2022-09-21T18:51:54.045Z,100574.27
2022-09-21T18:54:27.744Z,100575.52
2022-09-21T18:57:00.569Z,100572.60
2022-09-21T18:59:33.987Z,100571.97
2022-09-21T19:02:12.455Z,100574.63
2022-09-21T19:04:46.271Z,100572.20
2022-09-21T19:07:30.559Z,100570.15
2022-09-21T19:10:24.946Z,100571.73
2022-09-21T19:13:07.352Z,100572.96
2022-09-21T19:16:00.531Z,100572.29
2022-09-21T19:18:43.552Z,100577.76
2022-09-21T19:21:24.255Z,100579.14
2022-09-21T19:24:06.321Z,100579.02
2022-09-21T19:26:46.732Z,100579.36
2022-09-21T19:29:38.377Z,100580.95
2022-09-21T19:32:19.546Z,100577.52
2022-09-21T19:34:52.891Z,100572.87
2022-09-21T19:37:25.611Z,100573.09
2022-09-21T19:39:59.856Z,100570.98
2022-09-21T19:42:40.910Z,100569.61
2022-09-21T19:45:23.278Z,100569.64
2022-09-21T19:48:01.978Z,100570.30
2022-09-21T19:50:41.029Z,100570.27
2022-09-21T19:53:32.668Z,100571.27
2022-09-21T19:56:27.729Z,100568.34
2022-09-21T19:59:19.695Z,100565.07
2022-09-21T20:01:57.826Z,100573.27
2022-09-21T20:04:39.316Z,100568.23
2022-09-21T20:07:20.357Z,100567.54
2022-09-21T20:10:10.105Z,100570.51
2022-09-21T20:12:49.190Z,100571.35
2022-09-21T20:15:28.843Z,100568.22
2022-09-21T20:18:11.631Z,100571.05
2022-09-21T20:20:44.544Z,100575.61
2022-09-21T20:23:17.326Z,100575.27
2022-09-21T20:25:55.129Z,100578.58
2022-09-21T20:28:28.423Z,100579.45
2022-09-21T20:31:00.687Z,100576.85
2022-09-21T20:33:33.541Z,100577.41
2022-09-21T20:36:07.053Z,100576.77
2022-09-21T20:38:39.503Z,100576.36
2022-09-21T20:41:15.678Z,100578.30
2022-09-21T20:43:47.753Z,100580.45
2022-09-21T20:46:19.923Z,100580.88
2022-09-21T20:48:55.347Z,100579.75
2022-09-21T20:51:28.553Z,100578.78
2022-09-21T20:54:02.046Z,100575.10
2022-09-21T20:56:34.439Z,100574.88
2022-09-21T20:59:06.546Z,100571.85
2022-09-21T21:01:38.834Z,100568.14
2022-09-21T21:04:13.213Z,100568.25
2022-09-21T21:06:45.466Z,100567.50
2022-09-21T21:09:17.849Z,100566.09
2022-09-21T21:11:49.959Z,100571.08
2022-09-21T21:14:22.080Z,100569.77
2022-09-21T21:16:54.293Z,100569.71
2022-09-21T21:19:27.418Z,100572.77
2022-09-21T21:21:59.494Z,100567.81
2022-09-21T21:24:44.237Z,100570.88
2022-09-21T21:27:18.237Z,100570.08
2022-09-21T21:29:52.067Z,100565.98
2022-09-21T21:32:26.294Z,100566.06
2022-09-21T21:34:58.348Z,100563.20
2022-09-21T21:37:31.735Z,100565.88
2022-09-21T21:40:04.589Z,100562.96
2022-09-21T21:42:38.188Z,100563.00
2022-09-21T21:45:11.694Z,100566.68
2022-09-21T21:47:43.719Z,100572.45
2022-09-21T21:50:16.739Z,100572.48
2022-09-21T21:52:48.814Z,100572.88
2022-09-21T21:55:21.125Z,100572.24
2022-09-21T21:57:53.179Z,100574.56
2022-09-21T22:00:25.301Z,100575.34
2022-09-21T22:02:59.583Z,100574.03
2022-09-21T22:05:32.112Z,100573.89
2022-09-21T22:08:06.520Z,100570.64
2022-09-21T22:10:38.536Z,100571.91
2022-09-21T22:13:10.674Z,100563.95
2022-09-21T22:15:44.122Z,100571.80
2022-09-21T22:18:16.232Z,100571.11
2022-09-21T22:20:48.820Z,100567.64
2022-09-21T22:23:20.812Z,100575.27
2022-09-21T22:25:52.839Z,100569.36
2022-09-21T22:28:24.941Z,100570.70
2022-09-21T22:30:57.622Z,100566.85
2022-09-21T22:33:34.578Z,100570.51
2022-09-21T22:36:06.381Z,100565.64
2022-09-21T22:38:42.916Z,100568.09
2022-09-21T22:41:17.215Z,100571.06
2022-09-21T22:43:51.770Z,100573.52
2022-09-21T22:46:25.405Z,100568.15
2022-09-21T22:48:57.654Z,100578.93
2022-09-21T22:51:30.803Z,100577.96
2022-09-21T22:54:02.864Z,100575.75
2022-09-21T22:56:35.762Z,100572.69
2022-09-21T22:59:08.540Z,100575.84
2022-09-21T23:01:41.973Z,100577.45
2022-09-21T23:04:15.673Z,100576.08
2022-09-21T23:06:49.774Z,100573.49
2022-09-21T23:09:22.939Z,100574.58
2022-09-21T23:11:55.001Z,100573.77
2022-09-21T23:14:27.293Z,100573.29
2022-09-21T23:16:59.357Z,100574.75
2022-09-21T23:19:32.341Z,100574.12
2022-09-21T23:22:04.584Z,100576.77
2022-09-21T23:24:36.599Z,100576.66
2022-09-21T23:27:08.795Z,100576.55
2022-09-21T23:29:41.015Z,100576.27
2022-09-21T23:32:13.114Z,100574.91
2022-09-21T23:34:45.516Z,100575.15
2022-09-21T23:37:17.565Z,100576.05
2022-09-21T23:39:49.661Z,100576.28
2022-09-21T23:42:21.741Z,100573.70
2022-09-21T23:44:53.824Z,100572.02
2022-09-21T23:47:25.954Z,100574.45
2022-09-21T23:49:57.974Z,100575.67
2022-09-21T23:52:30.289Z,100573.46
2022-09-21T23:55:02.519Z,100572.42
2022-09-21T23:57:34.644Z,100575.42
